Bostonia, California
Current Conditions -  °F | °C
As of 6:15 AM on Monday 20 Oct 2014 (Local Time) from KSEE Reporting Station
Overcast Overcast  
Wind Chill: 61°   Ceiling: 1600
Heat Index: 61°   Visibility: 10mi
Dew Point: 57°   Wind: 0mph
Humidity: 88%   Direction: NA
Pressure: 29.93"   Gusts: NA
Location:  32.81°N, 116.93°W
Report Text: KSEE 201315Z AUTO 00000KT 10SM OVC016 16/14 A2993 RMK AO2
Loading
Personal Weather Stations






























Interactive Weather Map
Tropical Storm Tracking
New forecast layout! Learn more

10-Day Weather Forecast

Advertisements
Track Severe Weather on mobile